createdAt,value
2023-02-12T00:01:10.822Z,4.10
2023-02-12T00:03:39.597Z,4.10
2023-02-12T00:06:10.331Z,4.10
2023-02-12T00:08:39.141Z,4.10
2023-02-12T00:11:12.442Z,4.10
2023-02-12T00:13:41.283Z,4.10
2023-02-12T00:16:10.446Z,4.10
2023-02-12T00:18:38.631Z,4.10
2023-02-12T00:21:09.806Z,4.10
2023-02-12T00:23:39.029Z,4.00
2023-02-12T00:26:08.913Z,4.00
2023-02-12T00:28:37.280Z,4.10
2023-02-12T00:31:09.849Z,4.10
2023-02-12T00:33:38.254Z,4.10
2023-02-12T00:36:09.716Z,4.10
2023-02-12T00:38:37.749Z,4.20
2023-02-12T00:41:06.288Z,4.20
2023-02-12T00:43:34.346Z,4.20
2023-02-12T00:46:02.573Z,4.30
2023-02-12T00:48:30.736Z,4.30
2023-02-12T00:50:58.834Z,4.30
2023-02-12T00:53:28.263Z,4.30
2023-02-12T00:55:56.801Z,4.30
2023-02-12T00:58:25.471Z,4.30
2023-02-12T01:00:54.304Z,4.30
2023-02-12T01:03:22.679Z,4.30
2023-02-12T01:05:50.786Z,4.30
2023-02-12T01:08:19.044Z,4.30
2023-02-12T01:10:56.464Z,4.30
2023-02-12T01:13:25.627Z,4.20
2023-02-12T01:16:03.440Z,4.20
2023-02-12T01:18:31.519Z,4.20
2023-02-12T01:20:59.603Z,4.20
2023-02-12T01:23:27.672Z,4.20
2023-02-12T01:25:59.552Z,4.20
2023-02-12T01:28:27.667Z,4.20
2023-02-12T01:30:55.845Z,4.20
2023-02-12T01:33:23.940Z,4.20
2023-02-12T01:35:52.203Z,4.20
2023-02-12T01:38:20.277Z,4.20
2023-02-12T01:40:48.384Z,4.20
2023-02-12T01:43:17.818Z,4.20
2023-02-12T01:45:56.866Z,4.20
2023-02-12T01:48:28.934Z,4.20
2023-02-12T01:50:58.100Z,4.20
2023-02-12T01:53:30.851Z,4.20
2023-02-12T01:56:02.463Z,4.20
2023-02-12T01:58:37.081Z,4.20
2023-02-12T02:01:08.243Z,4.20
2023-02-12T02:03:38.843Z,4.20
2023-02-12T02:06:12.854Z,4.10
2023-02-12T02:08:42.543Z,4.10
2023-02-12T02:11:25.038Z,4.10
2023-02-12T02:14:13.543Z,4.10
2023-02-12T02:16:48.220Z,4.10
2023-02-12T02:19:30.854Z,4.00
2023-02-12T02:22:19.704Z,4.00
2023-02-12T02:25:26.555Z,4.00
2023-02-12T02:28:07.393Z,4.00
2023-02-12T02:30:45.555Z,3.90
2023-02-12T02:33:26.766Z,3.90
2023-02-12T02:36:05.599Z,3.90
2023-02-12T02:38:40.571Z,3.90
2023-02-12T02:41:16.403Z,3.90
2023-02-12T02:43:48.966Z,3.90
2023-02-12T02:46:26.481Z,3.90
2023-02-12T02:49:00.505Z,3.80
2023-02-12T02:51:33.072Z,3.80
2023-02-12T02:54:07.194Z,3.80
2023-02-12T02:56:39.122Z,3.80
2023-02-12T02:59:12.492Z,3.80
2023-02-12T03:01:47.992Z,3.80
2023-02-12T03:04:21.099Z,3.80
2023-02-12T03:06:55.733Z,3.80
2023-02-12T03:09:27.795Z,3.80
2023-02-12T03:12:01.456Z,3.80
2023-02-12T03:14:33.412Z,3.70
2023-02-12T03:17:08.065Z,3.70
2023-02-12T03:19:40.884Z,3.70
2023-02-12T03:22:11.758Z,3.70
2023-02-12T03:24:45.570Z,3.70
2023-02-12T03:27:20.380Z,3.70
2023-02-12T03:29:48.761Z,3.70
2023-02-12T03:32:26.534Z,3.60
2023-02-12T03:35:03.759Z,3.60
2023-02-12T03:37:35.936Z,3.60
2023-02-12T03:40:15.550Z,3.60
2023-02-12T03:42:52.149Z,3.60
2023-02-12T03:45:30.371Z,3.60
2023-02-12T03:48:07.496Z,3.60
2023-02-12T03:50:42.610Z,3.50
2023-02-12T03:53:10.790Z,3.50
2023-02-12T03:55:43.732Z,3.50
2023-02-12T03:58:17.864Z,3.50
2023-02-12T04:00:46.373Z,3.50
2023-02-12T04:03:15.895Z,3.50
2023-02-12T04:05:44.042Z,3.50
2023-02-12T04:08:13.780Z,3.50
2023-02-12T04:10:54.274Z,3.50
2023-02-12T04:13:29.841Z,3.40
2023-02-12T04:16:13.550Z,3.50
2023-02-12T04:18:45.835Z,3.50
2023-02-12T04:21:21.252Z,3.40
2023-02-12T04:23:58.756Z,3.40
2023-02-12T04:26:37.323Z,3.40
2023-02-12T04:29:15.616Z,3.40
2023-02-12T04:31:49.053Z,3.40
2023-02-12T04:34:24.648Z,3.40
2023-02-12T04:36:57.200Z,3.30
2023-02-12T04:39:28.834Z,3.40
2023-02-12T04:42:00.104Z,3.40
2023-02-12T04:44:30.839Z,3.30
2023-02-12T04:46:59.495Z,3.30
2023-02-12T04:49:28.976Z,3.30
2023-02-12T04:51:57.244Z,3.30
2023-02-12T04:54:25.661Z,3.30
2023-02-12T04:56:53.757Z,3.30
2023-02-12T04:59:22.058Z,3.30
2023-02-12T05:01:50.231Z,3.30
2023-02-12T05:04:18.938Z,3.30
2023-02-12T05:06:48.676Z,3.20
2023-02-12T05:09:19.196Z,3.20
2023-02-12T05:11:47.839Z,3.20
2023-02-12T05:14:16.242Z,3.20
2023-02-12T05:16:44.426Z,3.20
2023-02-12T05:19:13.194Z,3.20
2023-02-12T05:21:41.269Z,3.20
2023-02-12T05:24:10.995Z,3.20
2023-02-12T05:26:39.129Z,3.30
2023-02-12T05:29:07.182Z,3.30
2023-02-12T05:31:35.618Z,3.30
2023-02-12T05:34:03.746Z,3.30
2023-02-12T05:36:31.862Z,3.30
2023-02-12T05:39:00.980Z,3.30
2023-02-12T05:41:34.872Z,3.30
2023-02-12T05:44:03.103Z,3.30
2023-02-12T05:46:31.459Z,3.30
2023-02-12T05:48:59.514Z,3.30
2023-02-12T05:51:28.858Z,3.20
2023-02-12T05:54:00.111Z,3.20
2023-02-12T05:56:31.891Z,3.20
2023-02-12T05:59:03.386Z,3.20
2023-02-12T06:01:33.489Z,3.20
2023-02-12T06:04:02.131Z,3.20
2023-02-12T06:06:31.096Z,3.20
2023-02-12T06:08:59.626Z,3.20
2023-02-12T06:11:28.383Z,3.20
2023-02-12T06:13:57.757Z,3.20
2023-02-12T06:16:28.484Z,3.20
2023-02-12T06:18:57.897Z,3.20
2023-02-12T06:21:27.574Z,3.20
2023-02-12T06:23:55.705Z,3.20
2023-02-12T06:26:24.133Z,3.30
2023-02-12T06:28:52.354Z,3.30
2023-02-12T06:31:24.616Z,3.30
2023-02-12T06:33:53.891Z,3.30
2023-02-12T06:36:23.005Z,3.30
2023-02-12T06:38:51.859Z,3.30
2023-02-12T06:41:20.294Z,3.30
2023-02-12T06:43:48.418Z,3.30
2023-02-12T06:46:16.785Z,3.30
2023-02-12T06:48:46.202Z,3.40
2023-02-12T06:51:16.451Z,3.40
2023-02-12T06:53:45.159Z,3.40
2023-02-12T06:56:14.239Z,3.50
2023-02-12T06:58:43.825Z,3.60
2023-02-12T07:01:15.057Z,3.60
2023-02-12T07:03:46.065Z,3.70
2023-02-12T07:06:14.726Z,3.70
2023-02-12T07:08:42.783Z,3.80
2023-02-12T07:11:11.027Z,3.80
2023-02-12T07:13:39.863Z,3.90
2023-02-12T07:16:10.119Z,3.90
2023-02-12T07:18:38.912Z,4.00
2023-02-12T07:21:10.590Z,4.10
2023-02-12T07:23:38.824Z,4.20
2023-02-12T07:26:08.474Z,4.30
2023-02-12T07:28:36.844Z,4.40
2023-02-12T07:31:09.387Z,4.40
2023-02-12T07:33:38.016Z,4.50
2023-02-12T07:36:09.834Z,4.60
2023-02-12T07:38:39.870Z,4.70
2023-02-12T07:41:10.847Z,4.90
2023-02-12T07:43:39.555Z,4.90
2023-02-12T07:46:09.719Z,5.10
2023-02-12T07:48:37.790Z,5.20
2023-02-12T07:51:09.242Z,5.30
2023-02-12T07:53:37.677Z,5.40
2023-02-12T07:56:11.382Z,5.60
2023-02-12T07:58:40.621Z,5.70
2023-02-12T08:01:17.931Z,5.80
2023-02-12T08:03:47.055Z,6.00
2023-02-12T08:06:18.937Z,6.10
2023-02-12T08:08:47.446Z,6.20
2023-02-12T08:11:16.634Z,6.40
2023-02-12T08:13:44.954Z,6.50
2023-02-12T08:16:14.924Z,6.70
2023-02-12T08:18:43.805Z,6.80
2023-02-12T08:21:13.734Z,7.00
2023-02-12T08:23:43.505Z,7.20
2023-02-12T08:26:14.434Z,7.40
2023-02-12T08:28:45.026Z,7.50
2023-02-12T08:31:14.948Z,7.60
2023-02-12T08:33:43.266Z,7.80
2023-02-12T08:36:13.090Z,8.00
2023-02-12T08:38:43.774Z,8.10
2023-02-12T08:41:13.986Z,8.30
2023-02-12T08:43:42.862Z,8.50
2023-02-12T08:46:12.956Z,8.60
2023-02-12T08:48:41.984Z,8.70
2023-02-12T08:51:11.986Z,8.80
2023-02-12T08:53:43.307Z,8.90
2023-02-12T08:56:12.526Z,8.90
2023-02-12T08:58:40.718Z,9.00
2023-02-12T09:01:12.215Z,9.00
2023-02-12T09:03:40.521Z,9.00
2023-02-12T09:06:09.275Z,9.10
2023-02-12T09:08:37.812Z,9.10
2023-02-12T09:11:09.070Z,9.10
2023-02-12T09:13:37.951Z,9.20
2023-02-12T09:16:07.189Z,9.30
2023-02-12T09:18:35.890Z,9.30
2023-02-12T09:21:05.977Z,9.40
2023-02-12T09:23:34.322Z,9.40
2023-02-12T09:26:06.243Z,9.40
2023-02-12T09:28:36.184Z,9.50
2023-02-12T09:31:07.303Z,9.50
2023-02-12T09:33:35.555Z,9.60
2023-02-12T09:36:04.345Z,9.70
2023-02-12T09:38:32.775Z,9.90
2023-02-12T09:41:19.940Z,10.10
2023-02-12T09:43:54.789Z,10.30
2023-02-12T09:46:31.034Z,10.50
2023-02-12T09:49:06.296Z,10.70
2023-02-12T09:51:34.739Z,10.90
2023-02-12T09:54:06.173Z,11.10
2023-02-12T09:56:36.498Z,11.30
2023-02-12T09:59:08.817Z,11.60
2023-02-12T10:01:37.336Z,11.90
2023-02-12T10:04:07.216Z,12.20
2023-02-12T10:06:42.715Z,12.40
2023-02-12T10:09:34.298Z,12.70
2023-02-12T10:12:08.241Z,12.90
2023-02-12T10:15:08.684Z,13.10
2023-02-12T10:17:43.396Z,13.30
2023-02-12T10:20:41.677Z,13.40
2023-02-12T10:23:27.165Z,13.70
2023-02-12T10:25:57.944Z,13.90
2023-02-12T10:28:28.552Z,14.10
2023-02-12T10:31:01.146Z,14.20
2023-02-12T10:33:33.006Z,14.40
2023-02-12T10:36:06.250Z,14.60
2023-02-12T10:38:39.375Z,14.80
2023-02-12T10:41:07.468Z,14.90
2023-02-12T10:43:35.588Z,14.90
2023-02-12T10:46:05.332Z,15.00
2023-02-12T10:48:38.198Z,15.00
2023-02-12T10:51:28.976Z,15.00
2023-02-12T10:53:57.180Z,15.10
2023-02-12T10:56:26.520Z,15.20
2023-02-12T10:58:57.220Z,15.30
2023-02-12T11:01:29.559Z,15.40
2023-02-12T11:03:59.724Z,15.40
2023-02-12T11:06:29.870Z,15.60
2023-02-12T11:08:59.155Z,15.70
2023-02-12T11:11:30.734Z,15.80
2023-02-12T11:14:01.902Z,15.90
2023-02-12T11:16:33.793Z,16.10
2023-02-12T11:19:04.790Z,16.20
2023-02-12T11:21:33.473Z,16.20
2023-02-12T11:24:28.108Z,16.20
2023-02-12T11:27:14.117Z,16.20
2023-02-12T11:29:42.458Z,16.30
2023-02-12T11:32:18.148Z,16.20
2023-02-12T11:35:02.426Z,16.20
2023-02-12T11:37:31.659Z,16.30
2023-02-12T11:39:59.872Z,16.40
2023-02-12T11:42:38.555Z,16.50
2023-02-12T11:45:06.984Z,16.70
2023-02-12T11:47:41.611Z,16.70
2023-02-12T11:50:23.123Z,16.80
2023-02-12T11:52:53.165Z,17.00
2023-02-12T11:55:25.138Z,17.20
2023-02-12T11:57:54.356Z,17.40
2023-02-12T12:00:26.202Z,17.50
2023-02-12T12:03:00.443Z,17.60
2023-02-12T12:05:35.451Z,17.80
2023-02-12T12:08:12.624Z,17.90
2023-02-12T12:10:45.399Z,18.10
2023-02-12T12:13:17.417Z,18.40
2023-02-12T12:19:03.733Z,20.10
2023-02-12T12:21:39.022Z,20.80
2023-02-12T12:24:15.013Z,21.90
2023-02-12T12:26:48.749Z,22.90
2023-02-12T12:29:23.526Z,23.90
2023-02-12T12:31:57.172Z,25.20
2023-02-12T12:37:22.679Z,26.30
2023-02-12T12:40:07.521Z,26.60
2023-02-12T12:43:11.405Z,27.20
2023-02-12T12:46:07.192Z,27.90
2023-02-12T12:48:53.777Z,28.10
2023-02-12T12:51:38.425Z,28.40
2023-02-12T12:54:20.240Z,28.90
2023-02-12T12:56:59.638Z,29.20
2023-02-12T12:59:49.526Z,29.30
2023-02-12T13:03:11.799Z,29.50
2023-02-12T13:06:00.000Z,29.80
2023-02-12T13:08:49.091Z,30.00
2023-02-12T13:11:29.963Z,30.10
2023-02-12T13:14:05.869Z,30.20
2023-02-12T13:16:39.425Z,30.20
2023-02-12T13:19:16.831Z,30.30
2023-02-12T13:21:52.523Z,30.30
2023-02-12T13:24:32.945Z,30.30
2023-02-12T13:27:05.631Z,30.20
2023-02-12T13:29:38.233Z,30.10
2023-02-12T13:32:13.093Z,30.00
2023-02-12T13:34:42.871Z,29.80
2023-02-12T13:37:17.243Z,29.40
2023-02-12T13:39:49.678Z,28.90
2023-02-12T13:42:38.536Z,28.30
2023-02-12T13:45:21.100Z,27.50
2023-02-12T13:48:00.461Z,26.60
2023-02-12T13:50:41.567Z,25.90
2023-02-12T13:56:01.780Z,24.50
2023-02-12T13:58:50.149Z,23.90
2023-02-12T14:01:37.814Z,23.30
2023-02-12T14:04:17.177Z,22.70
2023-02-12T14:06:54.451Z,22.10
2023-02-12T14:09:27.930Z,21.60
2023-02-12T14:11:57.819Z,21.30
2023-02-12T14:14:29.118Z,21.00
2023-02-12T14:16:57.231Z,20.80
2023-02-12T14:19:55.599Z,20.50
2023-02-12T14:23:26.816Z,20.30
2023-02-12T14:26:04.177Z,20.00
2023-02-12T14:28:51.027Z,19.60
2023-02-12T14:34:15.356Z,19.10
2023-02-12T14:36:44.966Z,19.00
2023-02-12T14:39:30.382Z,18.90
2023-02-12T14:42:37.021Z,18.70
2023-02-12T14:45:06.899Z,18.40
2023-02-12T14:47:55.166Z,18.20
2023-02-12T14:50:42.544Z,18.00
2023-02-12T14:53:25.030Z,17.70
2023-02-12T14:55:53.850Z,17.60
2023-02-12T14:58:25.466Z,17.50
2023-02-12T15:00:57.262Z,17.40
2023-02-12T15:03:38.408Z,17.50
2023-02-12T15:06:11.515Z,17.70
2023-02-12T15:08:45.851Z,17.90
2023-02-12T15:11:30.368Z,17.90
2023-02-12T15:14:03.454Z,17.90
2023-02-12T15:16:41.169Z,17.70
2023-02-12T15:19:19.688Z,17.50
2023-02-12T15:21:48.281Z,17.30
2023-02-12T15:24:23.770Z,17.20
2023-02-12T15:26:53.547Z,17.30
2023-02-12T15:29:25.154Z,17.50
2023-02-12T15:31:57.450Z,18.00
2023-02-12T15:34:28.718Z,18.30
2023-02-12T15:36:59.465Z,18.30
2023-02-12T15:39:28.170Z,18.00
2023-02-12T15:41:56.625Z,17.60
2023-02-12T15:44:27.835Z,17.20
2023-02-12T15:47:03.818Z,16.80
2023-02-12T15:49:36.746Z,16.30
2023-02-12T15:52:09.622Z,16.00
2023-02-12T15:54:39.108Z,15.60
2023-02-12T15:57:13.172Z,15.30
2023-02-12T15:59:42.423Z,15.00
2023-02-12T16:02:20.660Z,14.70
2023-02-12T16:04:49.162Z,14.40
2023-02-12T16:07:18.465Z,14.10
2023-02-12T16:09:47.841Z,13.90
2023-02-12T16:12:20.400Z,13.70
2023-02-12T16:14:51.417Z,13.50
2023-02-12T16:17:28.860Z,13.30
2023-02-12T16:19:59.058Z,13.20
2023-02-12T16:22:33.790Z,13.00
2023-02-12T16:25:03.153Z,12.90
2023-02-12T16:27:34.311Z,12.70
2023-02-12T16:30:05.034Z,12.60
2023-02-12T16:32:41.020Z,12.50
2023-02-12T16:35:28.131Z,12.40
2023-02-12T16:38:01.455Z,12.30
2023-02-12T16:40:33.389Z,12.10
2023-02-12T16:43:07.740Z,12.00
2023-02-12T16:45:45.220Z,11.90
2023-02-12T16:48:25.148Z,11.80
2023-02-12T16:50:55.858Z,11.70
2023-02-12T16:53:37.398Z,11.50
2023-02-12T16:56:06.877Z,11.40
2023-02-12T16:58:34.916Z,11.30
2023-02-12T17:01:06.467Z,11.20
2023-02-12T17:03:36.666Z,11.00
2023-02-12T17:06:04.929Z,10.90
2023-02-12T17:08:33.138Z,10.80
2023-02-12T17:11:01.247Z,10.70
2023-02-12T17:13:29.262Z,10.60
2023-02-12T17:15:59.439Z,10.60
2023-02-12T17:18:28.390Z,10.50
2023-02-12T17:21:00.019Z,10.40
2023-02-12T17:23:28.729Z,10.30
2023-02-12T17:25:57.178Z,10.20
2023-02-12T17:28:26.160Z,10.10
2023-02-12T17:30:55.533Z,10.00
2023-02-12T17:33:23.805Z,9.90
2023-02-12T17:35:51.929Z,9.90
2023-02-12T17:38:21.413Z,9.80
2023-02-12T17:40:49.553Z,9.70
2023-02-12T17:43:17.813Z,9.70
2023-02-12T17:45:45.989Z,9.60
2023-02-12T17:48:15.306Z,9.50
2023-02-12T17:50:44.523Z,9.50
2023-02-12T17:53:13.059Z,9.40
2023-02-12T17:58:11.226Z,9.30
2023-02-12T18:00:41.888Z,9.20
2023-02-12T18:03:10.020Z,9.20
2023-02-12T18:05:41.987Z,9.10
2023-02-12T18:08:10.740Z,9.10
2023-02-12T18:10:42.883Z,9.00
2023-02-12T18:13:11.009Z,9.00
2023-02-12T18:15:41.552Z,9.00
2023-02-12T18:18:10.092Z,9.00
2023-02-12T18:20:40.343Z,8.90
2023-02-12T18:23:08.969Z,8.90
2023-02-12T18:25:42.533Z,8.90
2023-02-12T18:28:11.719Z,8.80
2023-02-12T18:30:42.949Z,8.70
2023-02-12T18:33:12.916Z,8.70
2023-02-12T18:35:41.808Z,8.70
2023-02-12T18:38:10.548Z,8.60
2023-02-12T18:40:42.395Z,8.60
2023-02-12T18:43:10.418Z,8.60
2023-02-12T18:45:40.426Z,8.50
2023-02-12T18:48:09.277Z,8.40
2023-02-12T18:50:37.950Z,8.40
2023-02-12T18:53:06.069Z,8.30
2023-02-12T18:55:34.210Z,8.30
2023-02-12T18:58:03.634Z,8.30
2023-02-12T19:00:31.723Z,8.20
2023-02-12T19:02:59.803Z,8.10
2023-02-12T19:05:27.972Z,8.10
2023-02-12T19:07:56.707Z,8.00
2023-02-12T19:10:24.821Z,7.90
2023-02-12T19:12:53.046Z,7.90
2023-02-12T19:15:22.795Z,7.80
2023-02-12T19:17:51.148Z,7.80
2023-02-12T19:20:19.711Z,7.70
2023-02-12T19:22:47.780Z,7.70
2023-02-12T19:25:15.993Z,7.70
2023-02-12T19:27:44.051Z,7.60
2023-02-12T19:30:13.247Z,7.60
2023-02-12T19:32:42.785Z,7.50
2023-02-12T19:35:10.936Z,7.50
2023-02-12T19:37:39.045Z,7.50
2023-02-12T19:40:08.437Z,7.40
2023-02-12T19:42:36.530Z,7.40
2023-02-12T19:45:05.062Z,7.30
2023-02-12T19:47:33.123Z,7.30
2023-02-12T19:50:02.551Z,7.20
2023-02-12T19:52:30.798Z,7.20
2023-02-12T19:54:59.180Z,7.10
2023-02-12T19:57:27.490Z,7.10
2023-02-12T19:59:55.519Z,7.10
2023-02-12T20:02:23.665Z,7.10
2023-02-12T20:04:51.743Z,7.00
2023-02-12T20:07:21.176Z,7.00
2023-02-12T20:09:52.143Z,6.90
2023-02-12T20:12:20.230Z,6.90
2023-02-12T20:14:48.253Z,6.90
2023-02-12T20:17:16.429Z,6.80
2023-02-12T20:19:44.475Z,6.80
2023-02-12T20:22:12.517Z,6.70
2023-02-12T20:24:41.942Z,6.70
2023-02-12T20:27:11.091Z,6.60
2023-02-12T20:29:39.507Z,6.50
2023-02-12T20:32:08.036Z,6.50
2023-02-12T20:34:49.043Z,6.40
2023-02-12T20:37:18.913Z,6.40
2023-02-12T20:39:48.448Z,6.40
2023-02-12T20:42:16.508Z,6.40
2023-02-12T20:44:44.582Z,6.30
2023-02-12T20:47:12.744Z,6.30
2023-02-12T20:49:40.815Z,6.20
2023-02-12T20:52:09.118Z,6.20
2023-02-12T20:54:39.126Z,6.10
2023-02-12T20:57:08.747Z,6.10
2023-02-12T20:59:36.793Z,6.10
2023-02-12T21:02:05.228Z,6.00
2023-02-12T21:04:33.279Z,6.00
2023-02-12T21:07:01.553Z,5.90
2023-02-12T21:09:29.798Z,5.90
2023-02-12T21:11:59.058Z,5.80
2023-02-12T21:14:28.450Z,5.80
2023-02-12T21:16:57.692Z,5.80
2023-02-12T21:19:26.636Z,5.70
2023-02-12T21:21:55.042Z,5.70
2023-02-12T21:24:25.867Z,5.60
2023-02-12T21:26:55.943Z,5.60
2023-02-12T21:29:26.621Z,5.60
2023-02-12T21:31:56.214Z,5.50
2023-02-12T21:34:25.057Z,5.50
2023-02-12T21:36:55.273Z,5.50
2023-02-12T21:39:26.219Z,5.50
2023-02-12T21:41:56.211Z,5.50
2023-02-12T21:44:25.365Z,5.40
2023-02-12T21:46:55.206Z,5.40
2023-02-12T21:49:27.719Z,5.40
2023-02-12T21:51:58.461Z,5.30
2023-02-12T21:54:27.890Z,5.30
2023-02-12T21:56:56.493Z,5.30
2023-02-12T21:59:26.416Z,5.20
2023-02-12T22:01:58.585Z,5.20
2023-02-12T22:04:27.571Z,5.20
2023-02-12T22:06:56.555Z,5.20
2023-02-12T22:09:24.789Z,5.20
2023-02-12T22:11:53.184Z,5.10
2023-02-12T22:14:22.052Z,5.10
2023-02-12T22:16:50.256Z,5.10
2023-02-12T22:19:20.045Z,5.10
2023-02-12T22:21:51.718Z,5.10
2023-02-12T22:24:20.339Z,5.00
2023-02-12T22:26:48.404Z,5.00
2023-02-12T22:29:17.269Z,5.00
2023-02-12T22:31:46.913Z,4.90
2023-02-12T22:34:16.805Z,4.90
2023-02-12T22:36:46.634Z,4.80
2023-02-12T22:39:17.472Z,4.80
2023-02-12T22:41:46.064Z,4.80
2023-02-12T22:44:15.301Z,4.70
2023-02-12T22:46:44.263Z,4.70
2023-02-12T22:49:12.494Z,4.60
2023-02-12T22:51:41.031Z,4.60
2023-02-12T22:54:14.462Z,4.50
2023-02-12T22:56:42.888Z,4.50
2023-02-12T22:59:12.085Z,4.40
2023-02-12T23:01:40.322Z,4.30
2023-02-12T23:04:08.644Z,4.30
2023-02-12T23:06:36.798Z,4.30
2023-02-12T23:09:05.914Z,4.20
2023-02-12T23:11:35.622Z,4.20
2023-02-12T23:14:03.669Z,4.20
2023-02-12T23:16:31.983Z,4.10
2023-02-12T23:19:02.034Z,4.10
2023-02-12T23:21:31.235Z,4.10
2023-02-12T23:24:00.196Z,4.10
2023-02-12T23:26:28.862Z,4.00
2023-02-12T23:28:59.096Z,4.00
2023-02-12T23:31:27.374Z,4.00
2023-02-12T23:33:55.475Z,4.00
2023-02-12T23:36:23.574Z,3.90
2023-02-12T23:38:51.586Z,3.90
2023-02-12T23:41:19.693Z,3.90
2023-02-12T23:43:47.886Z,3.90
2023-02-12T23:46:17.484Z,3.90
2023-02-12T23:48:45.604Z,3.90
2023-02-12T23:51:13.671Z,3.90
2023-02-12T23:53:41.744Z,3.80
2023-02-12T23:56:10.053Z,3.80
2023-02-12T23:58:38.214Z,3.80
